Time;durP1;ratioP1;P1;durP2;ratioP2;P2;SDS_P1;SDS_P2;PMS_P1;PMS_P2;Temp;Humidity;BMP_temperature;BMP_pressure;BME280_temperature;BME280_humidity;BME280_pressure;Samples;Min_cycle;Max_cycle;Signal;HPM_P1;HPM_P2
2023/08/03 00:01:58;;;;;;;3.73;1.03;;;;;;;;;;5107126;28;20451;-78
2023/08/03 00:04:28;;;;;;;5.53;1.40;;;;;;;;;;5103917;28;20545;-78
2023/08/03 00:06:57;;;;;;;3.37;1.70;;;;;;;;;;5107650;28;20521;-78
2023/08/03 00:09:48;;;;;;;4.30;1.87;;;;;;;;;;5106898;28;20466;-78
2023/08/03 00:12:17;;;;;;;2.90;2.03;;;;;;;;;;5106940;28;20517;-77
2023/08/03 00:14:51;;;;;;;5.07;1.93;;;;;;;;;;5104549;28;20577;-78
2023/08/03 00:20:18;;;;;;;3.90;1.57;;;;;;;;;;5108468;28;20435;-79
2023/08/03 00:23:01;;;;;;;4.67;1.60;;;;;;;;;;5088502;28;20460;-78
2023/08/03 00:25:31;;;;;;;4.60;1.50;;;;;;;;;;5103137;28;20452;-77
2023/08/03 00:28:01;;;;;;;2.93;2.27;;;;;;;;;;5103328;28;20456;-77
2023/08/03 00:30:31;;;;;;;6.33;1.73;;;;;;;;;;5106471;28;20475;-78
2023/08/03 00:32:59;;;;;;;2.73;1.50;;;;;;;;;;5105766;28;20462;-78
2023/08/03 00:35:30;;;;;;;4.87;2.27;;;;;;;;;;5109203;28;20485;-78
2023/08/03 00:38:14;;;;;;;4.33;1.70;;;;;;;;;;5110136;28;20468;-78
2023/08/03 00:40:45;;;;;;;4.40;1.67;;;;;;;;;;5110776;28;20855;-78
2023/08/03 00:43:13;;;;;;;6.00;1.47;;;;;;;;;;5108601;28;20479;-78
2023/08/03 00:45:51;;;;;;;6.50;2.00;;;;;;;;;;5109594;28;20483;-78
2023/08/03 00:48:26;;;;;;;2.00;1.33;;;;;;;;;;5111342;28;20443;-78
2023/08/03 00:50:57;;;;;;;3.60;1.50;;;;;;;;;;5111017;28;20534;-78
2023/08/03 00:53:25;;;;;;;3.40;1.93;;;;;;;;;;5112214;28;20451;-78
2023/08/03 00:56:01;;;;;;;6.43;1.97;;;;;;;;;;5112571;28;20448;-78
2023/08/03 00:58:41;;;;;;;;;;;;;;;;;;;;;
2023/08/03 01:01:14;;;;;;;3.40;1.60;;;;;;;;;;5112897;28;20482;-78
2023/08/03 01:03:46;;;;;;;7.10;1.60;;;;;;;;;;5111540;28;20448;-76
2023/08/03 01:06:17;;;;;;;2.93;1.50;;;;;;;;;;5112296;28;20554;-78
2023/08/03 01:08:45;;;;;;;6.20;1.50;;;;;;;;;;5112758;28;20455;-78
2023/08/03 01:11:14;;;;;;;3.40;1.50;;;;;;;;;;5113098;28;20479;-78
2023/08/03 01:13:48;;;;;;;3.93;1.67;;;;;;;;;;5113689;28;20455;-77
2023/08/03 01:16:25;;;;;;;5.30;1.83;;;;;;;;;;5110686;28;20497;-79
2023/08/03 01:18:53;;;;;;;7.47;1.60;;;;;;;;;;5111619;28;20455;-78
2023/08/03 01:21:23;;;;;;;4.90;1.60;;;;;;;;;;5110542;28;20455;-78
2023/08/03 01:23:52;;;;;;;6.10;1.47;;;;;;;;;;5108704;28;20550;-78
2023/08/03 01:26:19;;;;;;;4.60;1.53;;;;;;;;;;5096176;28;20488;-78
2023/08/03 01:28:48;;;;;;;4.00;1.43;;;;;;;;;;5087247;28;20925;-78
2023/08/03 01:31:21;;;;;;;5.37;1.43;;;;;;;;;;5090636;28;20546;-78
2023/08/03 01:33:50;;;;;;;3.67;1.27;;;;;;;;;;5089744;28;20467;-79
2023/08/03 01:36:18;;;;;;;5.00;1.63;;;;;;;;;;5087222;28;20760;-78
2023/08/03 01:38:46;;;;;;;3.50;1.47;;;;;;;;;;5083909;28;20445;-78
2023/08/03 01:41:15;;;;;;;4.40;1.47;;;;;;;;;;5083084;28;20499;-78
2023/08/03 01:43:43;;;;;;;3.60;1.50;;;;;;;;;;5075410;28;20449;-78
2023/08/03 01:46:10;;;;;;;5.90;1.70;;;;;;;;;;5082297;28;20480;-78
2023/08/03 01:48:37;;;;;;;4.23;1.77;;;;;;;;;;5082844;28;20475;-78
2023/08/03 01:51:05;;;;;;;3.43;1.30;;;;;;;;;;5083171;28;20802;-79
2023/08/03 01:53:32;;;;;;;3.13;1.17;;;;;;;;;;5081903;28;20529;-79
2023/08/03 01:56:00;;;;;;;8.20;1.60;;;;;;;;;;5082434;28;20476;-78
2023/08/03 01:58:29;;;;;;;4.33;1.47;;;;;;;;;;5082171;28;20445;-80
2023/08/03 02:00:56;;;;;;;4.00;1.47;;;;;;;;;;5083439;28;20460;-79
2023/08/03 02:03:23;;;;;;;4.43;1.10;;;;;;;;;;5082670;28;20534;-78
2023/08/03 02:05:51;;;;;;;5.00;2.10;;;;;;;;;;5082195;28;20709;-78
2023/08/03 02:08:18;;;;;;;5.50;1.70;;;;;;;;;;5083775;28;20740;-79
2023/08/03 02:10:46;;;;;;;9.70;2.37;;;;;;;;;;5083232;28;20472;-79
2023/08/03 02:13:13;;;;;;;6.50;1.30;;;;;;;;;;5083893;28;20452;-79
2023/08/03 02:15:42;;;;;;;4.30;2.13;;;;;;;;;;5084954;28;20479;-79
2023/08/03 02:18:11;;;;;;;2.43;1.20;;;;;;;;;;5086960;28;20429;-79
2023/08/03 02:20:38;;;;;;;3.93;1.50;;;;;;;;;;5087502;28;20486;-78
2023/08/03 02:23:06;;;;;;;3.40;1.33;;;;;;;;;;5083929;28;20449;-78
2023/08/03 02:25:33;;;;;;;3.90;1.70;;;;;;;;;;5084313;28;20482;-78
2023/08/03 02:28:01;;;;;;;2.30;1.80;;;;;;;;;;5082617;28;20484;-77
2023/08/03 02:30:30;;;;;;;2.87;1.30;;;;;;;;;;5081745;28;20825;-78
2023/08/03 02:32:59;;;;;;;6.27;1.40;;;;;;;;;;5085046;28;20482;-78
2023/08/03 02:35:26;;;;;;;7.07;1.77;;;;;;;;;;5081981;28;20466;-78
2023/08/03 02:37:54;;;;;;;5.03;1.70;;;;;;;;;;5086203;28;20448;-78
2023/08/03 02:40:22;;;;;;;4.00;1.50;;;;;;;;;;5082968;28;20456;-78
2023/08/03 02:42:49;;;;;;;4.97;1.50;;;;;;;;;;5083173;28;20456;-79
2023/08/03 02:45:17;;;;;;;12.00;1.87;;;;;;;;;;5089342;28;20452;-79
2023/08/03 02:47:47;;;;;;;3.83;1.43;;;;;;;;;;5085854;28;20476;-79
2023/08/03 02:50:19;;;;;;;3.07;1.20;;;;;;;;;;5088086;28;20480;-78
2023/08/03 02:52:46;;;;;;;3.63;2.50;;;;;;;;;;5084974;28;20507;-79
2023/08/03 02:55:14;;;;;;;3.57;1.60;;;;;;;;;;5086643;28;20452;-79
2023/08/03 02:57:41;;;;;;;5.27;1.80;;;;;;;;;;5080969;28;20449;-79
2023/08/03 03:00:10;;;;;;;4.07;1.53;;;;;;;;;;5083331;28;20479;-79
2023/08/03 03:02:37;;;;;;;4.67;2.03;;;;;;;;;;5081323;28;20476;-79
2023/08/03 03:05:05;;;;;;;3.53;1.77;;;;;;;;;;5080783;28;20460;-79
2023/08/03 03:07:34;;;;;;;2.97;1.27;;;;;;;;;;5080082;28;20516;-79
2023/08/03 03:10:07;;;;;;;5.80;1.70;;;;;;;;;;5081072;28;20453;-79
2023/08/03 03:12:38;;;;;;;4.73;1.60;;;;;;;;;;5081323;28;20455;-79
2023/08/03 03:15:06;;;;;;;8.30;2.20;;;;;;;;;;5082060;28;20440;-78
2023/08/03 03:17:33;;;;;;;6.23;1.77;;;;;;;;;;5083664;28;20488;-78
2023/08/03 03:20:08;;;;;;;5.10;2.13;;;;;;;;;;5080038;28;20487;-78
2023/08/03 03:22:41;;;;;;;4.90;1.37;;;;;;;;;;5083914;28;20458;-78
2023/08/03 03:25:12;;;;;;;13.30;2.97;;;;;;;;;;5082378;28;20543;-77
2023/08/03 03:27:39;;;;;;;3.93;1.50;;;;;;;;;;5075097;28;20796;-80
2023/08/03 03:30:08;;;;;;;4.03;1.40;;;;;;;;;;5053589;28;20928;-78
2023/08/03 03:32:36;;;;;;;5.93;2.00;;;;;;;;;;5060291;28;20707;-79
2023/08/03 03:35:03;;;;;;;8.80;1.87;;;;;;;;;;5059459;28;20553;-79
2023/08/03 03:37:31;;;;;;;3.57;1.50;;;;;;;;;;5064502;28;20454;-77
2023/08/03 03:40:08;;;;;;;3.57;1.40;;;;;;;;;;5065541;28;20507;-78
2023/08/03 03:42:36;;;;;;;5.80;1.60;;;;;;;;;;5063115;28;20464;-79
2023/08/03 03:45:09;;;;;;;4.30;1.20;;;;;;;;;;5060428;28;20481;-79
2023/08/03 03:47:37;;;;;;;7.27;1.70;;;;;;;;;;5063982;28;20493;-78
2023/08/03 03:50:09;;;;;;;7.70;1.70;;;;;;;;;;5064238;28;20520;-79
2023/08/03 03:52:36;;;;;;;6.50;2.13;;;;;;;;;;5063671;28;20464;-78
2023/08/03 03:55:06;;;;;;;3.33;1.53;;;;;;;;;;5063420;28;20532;-79
2023/08/03 03:57:33;;;;;;;6.50;1.40;;;;;;;;;;5063712;28;20462;-78
2023/08/03 04:00:09;;;;;;;5.70;1.87;;;;;;;;;;5062562;28;20488;-79
2023/08/03 04:02:36;;;;;;;3.47;1.47;;;;;;;;;;5063634;28;20946;-78
2023/08/03 04:05:04;;;;;;;3.80;1.40;;;;;;;;;;5062346;28;20457;-79
2023/08/03 04:07:31;;;;;;;4.30;1.73;;;;;;;;;;5059819;28;20485;-77
2023/08/03 04:09:58;;;;;;;3.73;1.63;;;;;;;;;;5062382;28;20473;-79
2023/08/03 04:12:27;;;;;;;6.53;1.90;;;;;;;;;;5065618;28;20476;-79
2023/08/03 04:14:55;;;;;;;5.83;1.20;;;;;;;;;;5061791;28;20453;-77
2023/08/03 04:17:22;;;;;;;3.73;1.50;;;;;;;;;;5061222;28;20489;-79
2023/08/03 04:19:49;;;;;;;5.60;1.40;;;;;;;;;;5063372;28;20492;-78
2023/08/03 04:22:17;;;;;;;3.20;1.10;;;;;;;;;;5063252;28;20469;-79
2023/08/03 04:24:44;;;;;;;3.17;1.40;;;;;;;;;;5063140;28;20525;-78
2023/08/03 04:27:12;;;;;;;7.90;1.80;;;;;;;;;;5062713;28;20496;-78
2023/08/03 04:29:40;;;;;;;4.63;1.57;;;;;;;;;;5062551;28;20453;-79
2023/08/03 04:32:08;;;;;;;5.77;1.77;;;;;;;;;;5063996;28;20463;-79
2023/08/03 04:34:36;;;;;;;4.40;1.43;;;;;;;;;;5063122;28;20465;-78
2023/08/03 04:37:03;;;;;;;5.27;1.53;;;;;;;;;;5064170;28;20491;-78
2023/08/03 04:39:30;;;;;;;5.57;1.33;;;;;;;;;;5065233;28;20468;-79
2023/08/03 04:41:58;;;;;;;9.73;1.87;;;;;;;;;;5062311;28;20457;-78
2023/08/03 04:44:28;;;;;;;7.27;2.00;;;;;;;;;;5065868;28;20468;-79
2023/08/03 04:46:57;;;;;;;4.00;1.73;;;;;;;;;;5065347;28;20515;-79
2023/08/03 04:49:25;;;;;;;7.07;2.10;;;;;;;;;;5062926;28;20512;-79
2023/08/03 04:51:53;;;;;;;4.23;2.07;;;;;;;;;;5063360;28;20990;-78
2023/08/03 04:54:21;;;;;;;7.27;2.10;;;;;;;;;;5061799;28;20469;-78
2023/08/03 04:56:48;;;;;;;5.77;1.90;;;;;;;;;;5062239;28;20510;-79
2023/08/03 04:59:18;;;;;;;5.33;1.47;;;;;;;;;;5063439;28;20480;-77
2023/08/03 05:01:46;;;;;;;4.30;1.20;;;;;;;;;;5062523;28;20453;-77
2023/08/03 05:04:15;;;;;;;4.37;1.70;;;;;;;;;;5060846;28;20726;-78
2023/08/03 05:06:45;;;;;;;3.40;1.30;;;;;;;;;;5059261;28;20438;-78
2023/08/03 05:09:13;;;;;;;2.93;1.13;;;;;;;;;;5060208;28;20456;-78
2023/08/03 05:11:40;;;;;;;3.33;1.20;;;;;;;;;;5060110;28;20476;-77
2023/08/03 05:14:08;;;;;;;1.80;1.00;;;;;;;;;;5059536;28;20810;-79
2023/08/03 05:16:35;;;;;;;6.07;1.30;;;;;;;;;;5060716;28;20439;-79
2023/08/03 05:19:03;;;;;;;2.13;1.00;;;;;;;;;;5063215;28;20966;-79
2023/08/03 05:21:31;;;;;;;3.57;1.20;;;;;;;;;;5061363;28;20715;-78
2023/08/03 05:23:59;;;;;;;2.67;1.20;;;;;;;;;;5060627;28;20449;-78
2023/08/03 05:26:27;;;;;;;4.40;1.17;;;;;;;;;;5060062;28;20567;-79
2023/08/03 05:28:55;;;;;;;3.23;1.30;;;;;;;;;;5061081;28;20488;-78
2023/08/03 05:31:22;;;;;;;3.23;1.40;;;;;;;;;;5058890;28;20468;-78
2023/08/03 05:33:50;;;;;;;2.30;1.10;;;;;;;;;;5040661;28;20520;-78
2023/08/03 05:36:17;;;;;;;2.10;1.00;;;;;;;;;;5038503;28;20526;-77
2023/08/03 05:38:46;;;;;;;3.43;0.80;;;;;;;;;;5046153;28;20457;-77
2023/08/03 05:41:16;;;;;;;2.70;0.80;;;;;;;;;;5045033;28;20498;-77
2023/08/03 05:43:44;;;;;;;1.60;0.70;;;;;;;;;;5056896;28;20477;-77
2023/08/03 05:46:14;;;;;;;2.07;1.00;;;;;;;;;;5060577;28;20437;-78
2023/08/03 05:48:41;;;;;;;2.00;0.90;;;;;;;;;;5060498;28;20508;-77
2023/08/03 05:51:10;;;;;;;3.20;0.87;;;;;;;;;;5063837;28;20453;-78
2023/08/03 05:53:37;;;;;;;1.80;0.80;;;;;;;;;;5063554;28;20501;-77
2023/08/03 05:56:12;;;;;;;2.77;0.90;;;;;;;;;;5062924;28;20525;-78
2023/08/03 05:58:39;;;;;;;1.70;0.80;;;;;;;;;;5063071;28;20544;-78
2023/08/03 06:01:07;;;;;;;3.87;1.10;;;;;;;;;;5062954;28;20464;-78
2023/08/03 06:03:35;;;;;;;1.83;0.73;;;;;;;;;;5058299;28;20561;-78
2023/08/03 06:06:08;;;;;;;2.03;0.80;;;;;;;;;;5047736;28;20485;-78
2023/08/03 06:08:37;;;;;;;2.30;0.87;;;;;;;;;;5060657;28;20503;-77
2023/08/03 06:11:06;;;;;;;2.33;0.70;;;;;;;;;;5044284;28;20454;-78
2023/08/03 06:13:36;;;;;;;3.93;0.93;;;;;;;;;;5039460;28;21085;-77
2023/08/03 06:16:05;;;;;;;2.10;0.87;;;;;;;;;;5035344;28;20797;-77
2023/08/03 06:18:33;;;;;;;1.50;0.80;;;;;;;;;;5051102;28;20464;-77
2023/08/03 06:21:00;;;;;;;5.00;0.90;;;;;;;;;;5055549;28;20483;-77
2023/08/03 06:23:33;;;;;;;2.40;1.20;;;;;;;;;;5059508;28;20789;-77
2023/08/03 06:26:00;;;;;;;3.20;1.10;;;;;;;;;;5058263;28;20485;-76
2023/08/03 06:28:28;;;;;;;1.90;0.90;;;;;;;;;;5058291;28;20481;-79
2023/08/03 06:30:57;;;;;;;2.03;1.20;;;;;;;;;;5056117;28;20470;-79
2023/08/03 06:33:24;;;;;;;2.23;1.10;;;;;;;;;;5040107;28;20561;-80
2023/08/03 06:35:53;;;;;;;3.70;1.50;;;;;;;;;;5041596;28;20493;-79
2023/08/03 06:38:22;;;;;;;2.17;1.67;;;;;;;;;;5049200;28;20493;-79
2023/08/03 06:40:50;;;;;;;2.57;1.10;;;;;;;;;;5042947;28;20454;-78
2023/08/03 06:43:17;;;;;;;2.93;1.37;;;;;;;;;;5042899;28;20840;-80
2023/08/03 06:45:45;;;;;;;2.30;1.30;;;;;;;;;;5046436;28;20455;-79
2023/08/03 06:48:16;;;;;;;2.73;1.30;;;;;;;;;;5041878;28;20488;-78
2023/08/03 06:50:43;;;;;;;2.30;1.10;;;;;;;;;;5041340;28;20478;-78
2023/08/03 06:53:11;;;;;;;2.10;1.50;;;;;;;;;;5041822;28;20465;-78
2023/08/03 06:55:39;;;;;;;2.20;1.53;;;;;;;;;;5041260;28;20816;-78
2023/08/03 06:58:10;;;;;;;2.43;1.30;;;;;;;;;;5039290;28;20500;-79
2023/08/03 07:00:41;;;;;;;2.57;1.30;;;;;;;;;;5044102;28;20882;-79
2023/08/03 07:03:08;;;;;;;2.50;1.40;;;;;;;;;;5063722;28;20458;-80
2023/08/03 07:05:37;;;;;;;1.90;1.33;;;;;;;;;;5062434;28;20453;-77
2023/08/03 07:08:06;;;;;;;2.63;1.00;;;;;;;;;;5061143;28;20501;-80
2023/08/03 07:10:34;;;;;;;3.10;1.60;;;;;;;;;;5060887;28;20504;-78
2023/08/03 07:13:03;;;;;;;1.77;1.27;;;;;;;;;;5066398;28;20662;-78
2023/08/03 07:15:33;;;;;;;1.70;1.03;;;;;;;;;;5062009;28;20525;-78
2023/08/03 07:18:01;;;;;;;2.77;1.20;;;;;;;;;;5060456;28;20842;-78
2023/08/03 07:20:29;;;;;;;1.60;1.20;;;;;;;;;;5053618;28;20453;-78
2023/08/03 07:22:59;;;;;;;2.70;1.40;;;;;;;;;;5060661;28;20464;-78
2023/08/03 07:25:26;;;;;;;4.80;1.30;;;;;;;;;;5057663;28;20522;-79
2023/08/03 07:27:54;;;;;;;2.80;1.60;;;;;;;;;;5060606;28;21121;-78
2023/08/03 07:30:22;;;;;;;3.50;1.70;;;;;;;;;;5061564;28;20757;-78
2023/08/03 07:32:52;;;;;;;2.30;1.70;;;;;;;;;;5063718;28;20450;-79
2023/08/03 07:35:20;;;;;;;4.07;1.70;;;;;;;;;;5060049;28;20481;-78
2023/08/03 07:37:48;;;;;;;6.93;2.30;;;;;;;;;;5062354;28;20544;-78
2023/08/03 07:40:18;;;;;;;2.23;1.60;;;;;;;;;;5061528;28;20449;-76
2023/08/03 07:42:45;;;;;;;4.10;1.67;;;;;;;;;;5056457;28;20456;-78
2023/08/03 07:45:15;;;;;;;2.37;1.33;;;;;;;;;;5058478;28;20457;-77
2023/08/03 07:47:44;;;;;;;4.47;2.83;;;;;;;;;;5059878;28;20463;-78
2023/08/03 07:50:21;;;;;;;3.17;1.40;;;;;;;;;;5060249;28;20472;-78
2023/08/03 07:52:52;;;;;;;2.03;1.27;;;;;;;;;;5057555;28;20484;-78
2023/08/03 07:55:22;;;;;;;2.17;1.60;;;;;;;;;;5055370;28;20750;-78
2023/08/03 07:57:50;;;;;;;2.97;2.10;;;;;;;;;;5048715;28;20470;-78
2023/08/03 08:00:18;;;;;;;2.40;1.53;;;;;;;;;;5038406;28;20455;-79
2023/08/03 08:02:46;;;;;;;1.90;1.17;;;;;;;;;;5035650;28;20443;-79
2023/08/03 08:05:13;;;;;;;2.00;1.40;;;;;;;;;;5034126;28;20481;-78
2023/08/03 08:07:42;;;;;;;2.43;1.63;;;;;;;;;;5033653;28;20464;-78
2023/08/03 08:10:15;;;;;;;2.50;1.70;;;;;;;;;;5037241;28;20459;-79
2023/08/03 08:12:45;;;;;;;2.77;1.70;;;;;;;;;;5034108;28;20476;-78
2023/08/03 08:15:13;;;;;;;2.30;1.60;;;;;;;;;;5033055;28;20484;-75
2023/08/03 08:17:41;;;;;;;2.97;1.50;;;;;;;;;;5028060;28;20775;-76
2023/08/03 08:20:09;;;;;;;2.40;1.70;;;;;;;;;;5035323;28;20541;-78
2023/08/03 08:22:36;;;;;;;2.03;1.60;;;;;;;;;;5038489;28;20450;-79
2023/08/03 08:25:04;;;;;;;2.50;1.57;;;;;;;;;;5036216;28;20572;-79
2023/08/03 08:27:32;;;;;;;2.43;1.73;;;;;;;;;;5039476;28;20484;-78
2023/08/03 08:30:06;;;;;;;2.77;1.60;;;;;;;;;;5039422;28;20496;-78
2023/08/03 08:32:34;;;;;;;2.60;1.63;;;;;;;;;;5039125;28;20753;-79
2023/08/03 08:35:03;;;;;;;2.20;1.77;;;;;;;;;;5040105;28;20518;-78
2023/08/03 08:37:33;;;;;;;4.30;1.77;;;;;;;;;;5037678;28;20473;-79
2023/08/03 08:40:06;;;;;;;2.33;1.70;;;;;;;;;;5040737;28;20795;-79
2023/08/03 08:42:33;;;;;;;3.70;2.30;;;;;;;;;;5039070;28;20556;-81
2023/08/03 08:45:27;;;;;;;3.30;1.90;;;;;;;;;;5040298;28;20478;-77
2023/08/03 08:47:58;;;;;;;2.13;1.80;;;;;;;;;;5037526;28;20465;-79
2023/08/03 08:50:26;;;;;;;2.50;1.87;;;;;;;;;;5035900;28;20439;-80
2023/08/03 08:52:54;;;;;;;3.97;2.40;;;;;;;;;;5042329;28;20446;-80
2023/08/03 08:55:23;;;;;;;3.60;2.20;;;;;;;;;;5040112;28;20486;-79
2023/08/03 08:57:51;;;;;;;6.10;2.10;;;;;;;;;;5044142;28;20468;-79
2023/08/03 09:00:21;;;;;;;2.80;2.17;;;;;;;;;;5042640;28;20552;-77
2023/08/03 09:02:48;;;;;;;2.77;2.20;;;;;;;;;;5043581;28;20550;-79
2023/08/03 09:05:17;;;;;;;2.90;1.70;;;;;;;;;;5042283;28;20853;-79
2023/08/03 09:07:49;;;;;;;2.47;1.70;;;;;;;;;;5046051;28;20467;-79
2023/08/03 09:10:17;;;;;;;3.07;1.40;;;;;;;;;;5048318;28;20514;-77
2023/08/03 09:12:45;;;;;;;2.60;1.60;;;;;;;;;;5051931;28;20900;-79
2023/08/03 09:15:12;;;;;;;2.40;1.40;;;;;;;;;;5061685;28;20484;-78
2023/08/03 09:17:44;;;;;;;2.53;1.50;;;;;;;;;;5061727;28;20484;-78
2023/08/03 09:20:25;;;;;;;5.10;2.50;;;;;;;;;;5064043;28;20928;-79
2023/08/03 09:22:53;;;;;;;2.93;1.90;;;;;;;;;;5061296;28;20461;-78
2023/08/03 09:25:20;;;;;;;3.30;1.70;;;;;;;;;;5061567;28;20457;-79
2023/08/03 09:27:50;;;;;;;2.80;1.50;;;;;;;;;;5047551;28;20531;-79
2023/08/03 09:30:18;;;;;;;2.50;1.50;;;;;;;;;;5041249;28;20539;-79
2023/08/03 09:32:49;;;;;;;1.93;1.40;;;;;;;;;;5042224;28;20490;-79
2023/08/03 09:35:20;;;;;;;3.13;1.73;;;;;;;;;;5039235;28;20675;-79
2023/08/03 09:37:48;;;;;;;2.67;1.53;;;;;;;;;;5040399;28;20466;-79
2023/08/03 09:40:19;;;;;;;3.00;1.77;;;;;;;;;;5041383;28;20447;-78
2023/08/03 09:42:48;;;;;;;2.67;1.50;;;;;;;;;;5043881;28;20468;-79
2023/08/03 09:45:15;;;;;;;2.20;1.80;;;;;;;;;;5045215;28;20462;-79
2023/08/03 09:47:43;;;;;;;2.90;1.90;;;;;;;;;;5043354;28;21009;-80
2023/08/03 09:50:16;;;;;;;1.83;1.10;;;;;;;;;;5047153;28;20956;-79
2023/08/03 09:52:46;;;;;;;3.93;1.50;;;;;;;;;;5059322;28;20486;-78
2023/08/03 09:55:18;;;;;;;4.63;1.57;;;;;;;;;;5066495;28;20487;-80
2023/08/03 09:57:49;;;;;;;2.47;1.30;;;;;;;;;;5066566;28;20468;-77
2023/08/03 10:00:18;;;;;;;3.70;1.33;;;;;;;;;;5061064;28;20903;-79
2023/08/03 10:02:49;;;;;;;4.03;2.10;;;;;;;;;;5058583;28;20464;-78
2023/08/03 10:05:20;;;;;;;2.47;1.83;;;;;;;;;;5061011;28;20835;-77
2023/08/03 10:07:49;;;;;;;3.10;1.20;;;;;;;;;;5060135;28;20429;-78
2023/08/03 10:10:21;;;;;;;2.40;1.50;;;;;;;;;;5058806;28;20481;-79
2023/08/03 10:12:51;;;;;;;2.50;1.10;;;;;;;;;;5055903;28;20458;-81
2023/08/03 10:15:19;;;;;;;3.10;1.13;;;;;;;;;;5056464;28;20746;-78
2023/08/03 10:17:47;;;;;;;2.00;1.00;;;;;;;;;;5058068;28;20449;-78
2023/08/03 10:20:20;;;;;;;4.27;1.30;;;;;;;;;;5057684;28;20445;-79
2023/08/03 10:23:02;;;;;;;3.20;1.23;;;;;;;;;;5056644;28;20449;-78
2023/08/03 10:25:29;;;;;;;1.90;1.10;;;;;;;;;;5053987;28;20482;-79
2023/08/03 10:28:14;;;;;;;2.67;0.93;;;;;;;;;;5057432;28;20441;-79
2023/08/03 10:31:00;;;;;;;2.60;1.10;;;;;;;;;;5056998;28;20867;-78
2023/08/03 10:33:53;;;;;;;2.80;2.10;;;;;;;;;;5055962;28;20892;-78
2023/08/03 10:36:38;;;;;;;2.60;1.30;;;;;;;;;;5060224;28;20462;-79
2023/08/03 10:39:06;;;;;;;1.90;1.00;;;;;;;;;;5062860;28;20465;-79
2023/08/03 10:41:37;;;;;;;2.30;1.20;;;;;;;;;;5060688;28;20484;-78
2023/08/03 10:44:23;;;;;;;2.43;1.40;;;;;;;;;;5059693;28;20438;-78
2023/08/03 10:46:56;;;;;;;2.90;1.13;;;;;;;;;;5053231;28;20446;-78
2023/08/03 10:49:42;;;;;;;1.90;0.90;;;;;;;;;;5040169;28;20745;-78
2023/08/03 10:52:21;;;;;;;4.20;1.60;;;;;;;;;;5036477;28;20486;-79
2023/08/03 10:54:49;;;;;;;3.00;0.80;;;;;;;;;;5040177;28;20488;-78
2023/08/03 10:57:18;;;;;;;2.47;1.10;;;;;;;;;;5047657;28;20472;-78
2023/08/03 10:59:46;;;;;;;2.50;1.27;;;;;;;;;;5054003;28;20614;-78
2023/08/03 11:02:18;;;;;;;1.90;1.00;;;;;;;;;;5047993;28;20473;-77
2023/08/03 11:04:50;;;;;;;2.10;1.00;;;;;;;;;;5036402;28;20446;-79
2023/08/03 11:07:19;;;;;;;2.03;1.00;;;;;;;;;;5044190;28;20475;-78
2023/08/03 11:09:48;;;;;;;2.33;1.00;;;;;;;;;;5046105;28;20557;-78
2023/08/03 11:12:20;;;;;;;5.50;1.17;;;;;;;;;;5042021;28;20523;-78
2023/08/03 11:14:49;;;;;;;2.13;0.90;;;;;;;;;;5049625;28;20461;-78
2023/08/03 11:17:17;;;;;;;2.00;1.10;;;;;;;;;;5040691;28;22049;-78
2023/08/03 11:19:46;;;;;;;2.10;1.10;;;;;;;;;;5041490;28;20454;-78
2023/08/03 11:22:15;;;;;;;1.93;1.17;;;;;;;;;;5055147;28;20453;-78
2023/08/03 11:24:42;;;;;;;3.17;1.13;;;;;;;;;;5056071;28;20548;-78
2023/08/03 11:27:13;;;;;;;4.23;1.20;;;;;;;;;;5059688;28;20497;-79
2023/08/03 11:29:41;;;;;;;3.80;1.73;;;;;;;;;;5059905;28;20493;-79
2023/08/03 11:32:11;;;;;;;2.30;1.20;;;;;;;;;;5062497;28;20468;-79
2023/08/03 11:34:39;;;;;;;2.70;1.00;;;;;;;;;;5060624;28;20527;-77
2023/08/03 11:37:07;;;;;;;4.07;1.27;;;;;;;;;;5054912;28;20453;-79
2023/08/03 11:39:35;;;;;;;11.43;4.80;;;;;;;;;;5060514;28;20441;-78
2023/08/03 11:42:09;;;;;;;2.00;1.00;;;;;;;;;;5042811;28;20460;-79
2023/08/03 11:44:40;;;;;;;4.23;1.20;;;;;;;;;;5040184;28;20450;-78
2023/08/03 11:47:09;;;;;;;2.00;1.00;;;;;;;;;;5048006;28;21049;-78
2023/08/03 11:49:36;;;;;;;2.10;1.07;;;;;;;;;;5054147;28;20489;-76
2023/08/03 11:52:05;;;;;;;2.73;1.00;;;;;;;;;;5049177;28;20461;-78
2023/08/03 11:54:34;;;;;;;2.10;0.77;;;;;;;;;;5051887;28;20450;-78
2023/08/03 11:59:46;;;;;;;2.03;1.03;;;;;;;;;;5054995;28;20442;-79
2023/08/03 12:02:13;;;;;;;2.37;0.90;;;;;;;;;;5054561;28;20465;-79
2023/08/03 12:04:41;;;;;;;2.33;1.10;;;;;;;;;;5048537;28;20813;-79
2023/08/03 12:07:09;;;;;;;2.63;1.10;;;;;;;;;;5047283;28;20489;-79
2023/08/03 12:09:40;;;;;;;2.10;1.10;;;;;;;;;;5051485;28;20489;-78
2023/08/03 12:12:09;;;;;;;3.60;1.00;;;;;;;;;;5042121;28;20496;-78
2023/08/03 12:14:37;;;;;;;2.10;0.97;;;;;;;;;;5038604;28;20471;-78
2023/08/03 12:17:11;;;;;;;1.80;0.90;;;;;;;;;;5036037;28;20458;-78
2023/08/03 12:19:39;;;;;;;1.90;0.93;;;;;;;;;;5050090;28;20460;-79
2023/08/03 12:22:07;;;;;;;2.67;0.90;;;;;;;;;;5058444;28;20830;-77
2023/08/03 12:24:36;;;;;;;4.40;1.03;;;;;;;;;;5052005;28;20441;-78
2023/08/03 12:27:04;;;;;;;1.90;0.90;;;;;;;;;;5060345;28;20474;-79
2023/08/03 12:29:32;;;;;;;1.63;0.80;;;;;;;;;;5052747;28;20539;-80
2023/08/03 12:32:00;;;;;;;1.70;0.80;;;;;;;;;;5072632;28;20452;-78
2023/08/03 12:34:30;;;;;;;2.00;1.10;;;;;;;;;;5073502;28;20448;-79
2023/08/03 12:36:58;;;;;;;1.80;1.00;;;;;;;;;;5068298;28;20465;-78
2023/08/03 12:39:25;;;;;;;1.90;1.00;;;;;;;;;;5062732;28;20461;-78
2023/08/03 12:41:53;;;;;;;3.50;1.30;;;;;;;;;;5065739;28;20800;-78
2023/08/03 12:44:20;;;;;;;1.60;0.80;;;;;;;;;;5064848;28;20449;-77
2023/08/03 12:46:48;;;;;;;3.20;1.10;;;;;;;;;;5047008;28;20464;-78
2023/08/03 12:49:18;;;;;;;3.93;1.50;;;;;;;;;;5042972;28;20457;-77
2023/08/03 12:51:53;;;;;;;5.03;1.20;;;;;;;;;;5053178;28;20462;-77
2023/08/03 12:54:23;;;;;;;2.67;1.83;;;;;;;;;;5054513;28;20453;-77
2023/08/03 13:03:08;;;;;;;2.77;1.67;;;;;;;;;;5049104;28;20461;-78
2023/08/03 13:05:36;;;;;;;5.40;3.37;;;;;;;;;;5045842;28;20819;-78
2023/08/03 13:08:08;;;;;;;3.10;2.07;;;;;;;;;;5050448;28;20457;-79
2023/08/03 13:10:48;;;;;;;2.80;1.30;;;;;;;;;;5052098;28;20564;-78
2023/08/03 13:13:18;;;;;;;3.30;1.10;;;;;;;;;;5046329;28;20904;-77
2023/08/03 13:15:47;;;;;;;2.00;0.90;;;;;;;;;;5051436;28;20466;-80
2023/08/03 13:18:14;;;;;;;1.80;0.80;;;;;;;;;;5048896;28;20461;-78
2023/08/03 13:20:44;;;;;;;2.03;0.83;;;;;;;;;;5057516;28;20468;-79
2023/08/03 13:23:13;;;;;;;3.23;1.33;;;;;;;;;;5050448;28;20458;-79
2023/08/03 13:25:41;;;;;;;1.50;0.80;;;;;;;;;;5059230;28;20457;-79
2023/08/03 13:28:09;;;;;;;1.60;0.70;;;;;;;;;;5046943;28;20473;-79
2023/08/03 13:30:36;;;;;;;3.70;1.57;;;;;;;;;;5053189;28;20577;-80
2023/08/03 13:33:04;;;;;;;3.10;1.13;;;;;;;;;;5047578;28;20450;-78
2023/08/03 13:35:32;;;;;;;3.57;1.73;;;;;;;;;;5049079;28;20458;-78
2023/08/03 13:38:03;;;;;;;3.30;1.00;;;;;;;;;;5055059;28;20458;-79
2023/08/03 13:40:33;;;;;;;1.60;0.80;;;;;;;;;;5059131;28;20470;-79
2023/08/03 13:43:04;;;;;;;1.50;0.70;;;;;;;;;;5043719;28;20458;-78
2023/08/03 13:45:46;;;;;;;2.10;1.30;;;;;;;;;;5051324;28;20466;-80
2023/08/03 13:48:19;;;;;;;1.80;0.97;;;;;;;;;;5057346;28;20474;-79
2023/08/03 13:50:51;;;;;;;1.83;0.87;;;;;;;;;;5059433;28;20568;-79
2023/08/03 13:53:19;;;;;;;2.97;1.03;;;;;;;;;;5066629;28;20468;-79
2023/08/03 13:55:54;;;;;;;2.00;1.00;;;;;;;;;;5072236;28;20463;-78
2023/08/03 13:58:22;;;;;;;2.07;0.83;;;;;;;;;;5068980;28;20461;-78
2023/08/03 14:00:50;;;;;;;1.80;0.80;;;;;;;;;;5064809;28;20448;-77
2023/08/03 14:04:02;;;;;;;;;;;;;;;;;;;;;
2023/08/03 14:06:33;;;;;;;2.60;1.57;;;;;;;;;;5067622;28;20456;-79
2023/08/03 14:09:11;;;;;;;3.60;1.03;;;;;;;;;;5075180;28;20464;-79
2023/08/03 14:11:43;;;;;;;2.40;0.80;;;;;;;;;;5067792;28;20552;-78
2023/08/03 14:14:11;;;;;;;2.00;0.90;;;;;;;;;;5074988;28;20450;-78
2023/08/03 14:16:40;;;;;;;2.80;0.70;;;;;;;;;;5072823;28;20464;-78
2023/08/03 14:19:07;;;;;;;3.20;1.00;;;;;;;;;;5079580;28;20456;-78
2023/08/03 14:21:36;;;;;;;3.03;1.23;;;;;;;;;;5053296;28;20547;-78
2023/08/03 14:24:02;;;;;;;3.20;1.50;;;;;;;;;;5066705;28;20460;-78
2023/08/03 14:26:30;;;;;;;2.23;0.80;;;;;;;;;;5077946;28;20893;-78
2023/08/03 14:29:07;;;;;;;2.23;1.20;;;;;;;;;;5080770;28;20524;-79
2023/08/03 14:31:35;;;;;;;2.67;1.13;;;;;;;;;;5072472;28;20468;-79
2023/08/03 14:34:04;;;;;;;2.50;1.30;;;;;;;;;;5067429;28;20465;-78
2023/08/03 14:36:31;;;;;;;2.10;0.90;;;;;;;;;;5074785;28;20467;-78
2023/08/03 14:38:59;;;;;;;2.27;0.90;;;;;;;;;;5070647;28;20496;-76
2023/08/03 14:41:27;;;;;;;3.30;0.90;;;;;;;;;;5066743;28;20488;-79
2023/08/03 14:43:55;;;;;;;2.50;1.30;;;;;;;;;;5068366;28;20507;-79
2023/08/03 14:46:25;;;;;;;5.73;1.00;;;;;;;;;;5072645;28;20468;-78
2023/08/03 14:48:52;;;;;;;2.60;1.23;;;;;;;;;;5081119;28;20561;-80
2023/08/03 14:51:20;;;;;;;2.60;1.20;;;;;;;;;;5070801;28;20481;-80
2023/08/03 14:53:48;;;;;;;1.70;0.70;;;;;;;;;;5065063;28;20523;-80
2023/08/03 14:56:26;;;;;;;1.83;0.67;;;;;;;;;;5074921;28;20461;-78
2023/08/03 14:58:54;;;;;;;1.57;0.70;;;;;;;;;;5063222;28;20500;-81
2023/08/03 15:01:22;;;;;;;2.73;0.70;;;;;;;;;;5072365;28;20443;-78
2023/08/03 15:03:55;;;;;;;2.53;1.60;;;;;;;;;;5078789;28;21040;-79
2023/08/03 15:06:23;;;;;;;2.97;1.10;;;;;;;;;;5063546;28;20476;-80
2023/08/03 15:08:51;;;;;;;2.30;1.00;;;;;;;;;;5065505;28;20860;-77
2023/08/03 15:11:20;;;;;;;1.40;0.60;;;;;;;;;;5062406;28;20478;-78
2023/08/03 15:13:50;;;;;;;2.27;1.03;;;;;;;;;;5067250;28;20539;-79